sensor_id;sensor_type;location;lat;lon;timestamp;pressure;altitude;pressure_sealevel;temperature;humidity
55022;BME280;68328;35.990;-86.756;2023-04-08T00:00:36;99896.84;;;16.52;28.22
55022;BME280;68328;35.990;-86.756;2023-04-08T00:03:02;99898.48;;;16.74;28.97
55022;BME280;68328;35.990;-86.756;2023-04-08T00:05:28;99895.97;;;16.85;28.80
55022;BME280;68328;35.990;-86.756;2023-04-08T00:07:53;99893.44;;;16.91;28.97
55022;BME280;68328;35.990;-86.756;2023-04-08T00:10:17;99892.25;;;16.60;29.27
55022;BME280;68328;35.990;-86.756;2023-04-08T00:12:44;99897.48;;;16.90;29.01
55022;BME280;68328;35.990;-86.756;2023-04-08T00:15:10;99892.86;;;16.98;28.49
55022;BME280;68328;35.990;-86.756;2023-04-08T00:17:33;99888.84;;;17.31;27.59
55022;BME280;68328;35.990;-86.756;2023-04-08T00:19:59;99884.37;;;16.92;29.22
55022;BME280;68328;35.990;-86.756;2023-04-08T00:22:24;99890.54;;;17.12;30.12
55022;BME280;68328;35.990;-86.756;2023-04-08T00:24:49;99890.88;;;17.39;27.99
55022;BME280;68328;35.990;-86.756;2023-04-08T00:27:15;99886.27;;;16.84;28.95
55022;BME280;68328;35.990;-86.756;2023-04-08T00:29:40;99879.56;;;17.34;27.97
55022;BME280;68328;35.990;-86.756;2023-04-08T00:32:05;99883.71;;;17.19;29.45
55022;BME280;68328;35.990;-86.756;2023-04-08T00:34:32;99885.91;;;17.35;28.36
55022;BME280;68328;35.990;-86.756;2023-04-08T00:36:56;99882.29;;;17.29;29.76
55022;BME280;68328;35.990;-86.756;2023-04-08T00:39:22;99879.69;;;17.41;29.48
55022;BME280;68328;35.990;-86.756;2023-04-08T00:41:47;99879.37;;;17.45;27.75
55022;BME280;68328;35.990;-86.756;2023-04-08T00:44:12;99880.57;;;17.43;28.46
55022;BME280;68328;35.990;-86.756;2023-04-08T00:46:39;99882.49;;;17.07;29.72
55022;BME280;68328;35.990;-86.756;2023-04-08T00:49:03;99885.61;;;17.24;28.64
55022;BME280;68328;35.990;-86.756;2023-04-08T00:51:28;99886.28;;;17.38;31.13
55022;BME280;68328;35.990;-86.756;2023-04-08T00:53:55;99886.38;;;17.47;29.45
55022;BME280;68328;35.990;-86.756;2023-04-08T00:56:19;99891.15;;;17.62;28.46
55022;BME280;68328;35.990;-86.756;2023-04-08T00:58:45;99892.74;;;17.16;31.90
55022;BME280;68328;35.990;-86.756;2023-04-08T01:01:13;99889.43;;;17.21;30.21
55022;BME280;68328;35.990;-86.756;2023-04-08T01:03:42;99896.30;;;17.32;32.69
55022;BME280;68328;35.990;-86.756;2023-04-08T01:06:08;99904.20;;;17.17;27.95
55022;BME280;68328;35.990;-86.756;2023-04-08T01:08:26;99911.29;;;16.97;30.73
55022;BME280;68328;35.990;-86.756;2023-04-08T01:10:53;99915.02;;;17.41;29.31
55022;BME280;68328;35.990;-86.756;2023-04-08T01:13:17;99915.89;;;17.36;29.47
55022;BME280;68328;35.990;-86.756;2023-04-08T01:15:42;99920.92;;;17.17;30.26
55022;BME280;68328;35.990;-86.756;2023-04-08T01:18:08;99924.65;;;17.44;30.27
55022;BME280;68328;35.990;-86.756;2023-04-08T01:20:32;99924.52;;;17.48;29.42
55022;BME280;68328;35.990;-86.756;2023-04-08T01:23:05;99922.53;;;17.51;29.41
55022;BME280;68328;35.990;-86.756;2023-04-08T01:25:28;99929.08;;;17.34;29.03
55022;BME280;68328;35.990;-86.756;2023-04-08T01:27:48;99929.28;;;16.74;30.79
55022;BME280;68328;35.990;-86.756;2023-04-08T01:30:14;99928.48;;;17.02;29.37
55022;BME280;68328;35.990;-86.756;2023-04-08T01:32:39;99931.19;;;17.20;28.21
55022;BME280;68328;35.990;-86.756;2023-04-08T01:35:04;99927.05;;;17.23;29.44
55022;BME280;68328;35.990;-86.756;2023-04-08T01:37:30;99927.77;;;17.19;29.26
55022;BME280;68328;35.990;-86.756;2023-04-08T01:39:55;99918.43;;;17.15;27.33
55022;BME280;68328;35.990;-86.756;2023-04-08T01:42:21;99913.15;;;17.05;29.12
55022;BME280;68328;35.990;-86.756;2023-04-08T01:44:45;99905.18;;;17.08;27.71
55022;BME280;68328;35.990;-86.756;2023-04-08T01:47:14;99900.27;;;17.11;27.08
55022;BME280;68328;35.990;-86.756;2023-04-08T01:49:36;99903.63;;;17.52;26.86
55022;BME280;68328;35.990;-86.756;2023-04-08T01:52:01;99907.30;;;17.07;26.48
55022;BME280;68328;35.990;-86.756;2023-04-08T01:54:26;99907.08;;;16.04;26.75
55022;BME280;68328;35.990;-86.756;2023-04-08T01:56:53;99908.59;;;15.50;26.85
55022;BME280;68328;35.990;-86.756;2023-04-08T01:59:17;99906.34;;;15.89;26.48
55022;BME280;68328;35.990;-86.756;2023-04-08T02:01:44;99897.88;;;16.15;27.33
55022;BME280;68328;35.990;-86.756;2023-04-08T02:04:07;99893.76;;;16.25;26.09
55022;BME280;68328;35.990;-86.756;2023-04-08T02:06:33;99895.29;;;16.37;25.10
55022;BME280;68328;35.990;-86.756;2023-04-08T02:09:03;99900.73;;;16.67;25.58
55022;BME280;68328;35.990;-86.756;2023-04-08T02:11:23;99910.13;;;16.52;26.73
55022;BME280;68328;35.990;-86.756;2023-04-08T02:13:49;99916.98;;;16.76;25.97
55022;BME280;68328;35.990;-86.756;2023-04-08T02:16:17;99916.08;;;16.50;25.21
55022;BME280;68328;35.990;-86.756;2023-04-08T02:18:41;99919.71;;;15.84;26.36
55022;BME280;68328;35.990;-86.756;2023-04-08T02:21:10;99918.65;;;16.35;25.85
55022;BME280;68328;35.990;-86.756;2023-04-08T02:23:33;99924.05;;;16.57;25.41
55022;BME280;68328;35.990;-86.756;2023-04-08T02:25:56;99920.21;;;16.69;27.67
55022;BME280;68328;35.990;-86.756;2023-04-08T02:28:20;99916.68;;;16.15;28.02
55022;BME280;68328;35.990;-86.756;2023-04-08T02:30:51;99909.57;;;16.55;26.22
55022;BME280;68328;35.990;-86.756;2023-04-08T02:33:12;99906.69;;;16.19;26.30
55022;BME280;68328;35.990;-86.756;2023-04-08T02:35:36;99908.59;;;16.39;27.15
55022;BME280;68328;35.990;-86.756;2023-04-08T02:38:02;99907.94;;;16.23;27.29
55022;BME280;68328;35.990;-86.756;2023-04-08T02:40:28;99914.07;;;16.33;27.47
55022;BME280;68328;35.990;-86.756;2023-04-08T02:42:52;99910.66;;;16.26;25.82
55022;BME280;68328;35.990;-86.756;2023-04-08T02:45:17;99911.69;;;15.92;26.08
55022;BME280;68328;35.990;-86.756;2023-04-08T02:47:42;99913.46;;;16.05;25.65
55022;BME280;68328;35.990;-86.756;2023-04-08T02:50:09;99914.41;;;16.45;25.80
55022;BME280;68328;35.990;-86.756;2023-04-08T02:52:33;99910.54;;;16.50;25.65
55022;BME280;68328;35.990;-86.756;2023-04-08T02:54:58;99907.10;;;16.59;26.58
55022;BME280;68328;35.990;-86.756;2023-04-08T02:57:23;99908.05;;;16.49;26.16
55022;BME280;68328;35.990;-86.756;2023-04-08T02:59:49;99910.64;;;16.29;25.48
55022;BME280;68328;35.990;-86.756;2023-04-08T03:02:15;99911.20;;;15.89;29.53
55022;BME280;68328;35.990;-86.756;2023-04-08T03:04:39;99907.28;;;16.23;29.30
55022;BME280;68328;35.990;-86.756;2023-04-08T03:07:05;99903.23;;;16.24;26.24
55022;BME280;68328;35.990;-86.756;2023-04-08T03:09:30;99909.98;;;16.47;25.91
55022;BME280;68328;35.990;-86.756;2023-04-08T03:11:55;99909.83;;;15.93;25.14
55022;BME280;68328;35.990;-86.756;2023-04-08T03:14:21;99911.17;;;15.75;25.58
55022;BME280;68328;35.990;-86.756;2023-04-08T03:16:46;99911.68;;;15.44;26.92
55022;BME280;68328;35.990;-86.756;2023-04-08T03:19:13;99912.60;;;15.16;27.94
55022;BME280;68328;35.990;-86.756;2023-04-08T03:21:36;99905.24;;;15.54;26.63
55022;BME280;68328;35.990;-86.756;2023-04-08T03:24:02;99909.87;;;15.44;27.19
55022;BME280;68328;35.990;-86.756;2023-04-08T03:26:27;99917.44;;;15.68;26.89
55022;BME280;68328;35.990;-86.756;2023-04-08T03:28:53;99922.25;;;15.87;26.66
55022;BME280;68328;35.990;-86.756;2023-04-08T03:31:18;99925.28;;;15.48;27.78
55022;BME280;68328;35.990;-86.756;2023-04-08T03:33:44;99924.38;;;15.55;26.02
55022;BME280;68328;35.990;-86.756;2023-04-08T03:36:09;99924.27;;;15.91;25.16
55022;BME280;68328;35.990;-86.756;2023-04-08T03:38:39;99917.71;;;15.25;25.92
55022;BME280;68328;35.990;-86.756;2023-04-08T03:41:00;99914.59;;;15.66;27.40
55022;BME280;68328;35.990;-86.756;2023-04-08T03:43:24;99910.02;;;15.22;25.67
55022;BME280;68328;35.990;-86.756;2023-04-08T03:45:50;99907.85;;;15.32;30.27
55022;BME280;68328;35.990;-86.756;2023-04-08T03:48:15;99900.16;;;15.33;28.07
55022;BME280;68328;35.990;-86.756;2023-04-08T03:50:41;99904.60;;;14.75;26.76
55022;BME280;68328;35.990;-86.756;2023-04-08T03:53:07;99900.99;;;15.69;26.65
55022;BME280;68328;35.990;-86.756;2023-04-08T03:55:32;99906.10;;;15.73;26.37
55022;BME280;68328;35.990;-86.756;2023-04-08T03:57:57;99910.64;;;15.09;26.15
55022;BME280;68328;35.990;-86.756;2023-04-08T04:00:23;99906.25;;;15.82;26.28
55022;BME280;68328;35.990;-86.756;2023-04-08T04:02:48;99904.44;;;15.77;28.56
55022;BME280;68328;35.990;-86.756;2023-04-08T04:05:12;99903.96;;;15.87;27.64
55022;BME280;68328;35.990;-86.756;2023-04-08T04:07:37;99910.22;;;15.52;27.10
55022;BME280;68328;35.990;-86.756;2023-04-08T04:10:04;99903.88;;;16.10;29.65
55022;BME280;68328;35.990;-86.756;2023-04-08T04:12:28;99897.87;;;15.81;28.65
55022;BME280;68328;35.990;-86.756;2023-04-08T04:14:53;99885.66;;;15.47;27.16
55022;BME280;68328;35.990;-86.756;2023-04-08T04:17:19;99881.09;;;15.44;26.31
55022;BME280;68328;35.990;-86.756;2023-04-08T04:19:44;99881.07;;;14.94;27.51
55022;BME280;68328;35.990;-86.756;2023-04-08T04:22:09;99876.98;;;15.51;27.71
55022;BME280;68328;35.990;-86.756;2023-04-08T04:24:35;99874.04;;;15.44;26.60
55022;BME280;68328;35.990;-86.756;2023-04-08T04:27:00;99871.12;;;15.42;27.49
55022;BME280;68328;35.990;-86.756;2023-04-08T04:29:26;99868.11;;;15.75;28.30
55022;BME280;68328;35.990;-86.756;2023-04-08T04:31:51;99870.02;;;15.21;28.11
55022;BME280;68328;35.990;-86.756;2023-04-08T04:34:17;99867.85;;;15.63;25.34
55022;BME280;68328;35.990;-86.756;2023-04-08T04:36:42;99868.51;;;15.81;25.63
55022;BME280;68328;35.990;-86.756;2023-04-08T04:39:06;99869.05;;;15.50;25.53
55022;BME280;68328;35.990;-86.756;2023-04-08T04:41:32;99867.70;;;15.25;30.54
55022;BME280;68328;35.990;-86.756;2023-04-08T04:43:57;99866.34;;;15.78;25.86
55022;BME280;68328;35.990;-86.756;2023-04-08T04:46:23;99868.27;;;15.52;27.25
55022;BME280;68328;35.990;-86.756;2023-04-08T04:48:48;99871.00;;;15.24;26.81
55022;BME280;68328;35.990;-86.756;2023-04-08T04:51:13;99864.21;;;15.55;26.76
55022;BME280;68328;35.990;-86.756;2023-04-08T04:53:40;99856.84;;;15.61;25.92
55022;BME280;68328;35.990;-86.756;2023-04-08T04:56:04;99853.60;;;15.75;25.43
55022;BME280;68328;35.990;-86.756;2023-04-08T04:58:29;99860.19;;;15.98;25.68
55022;BME280;68328;35.990;-86.756;2023-04-08T05:00:55;99864.81;;;16.08;25.53
55022;BME280;68328;35.990;-86.756;2023-04-08T05:03:20;99869.94;;;15.75;26.31
55022;BME280;68328;35.990;-86.756;2023-04-08T05:05:47;99865.84;;;16.03;25.79
55022;BME280;68328;35.990;-86.756;2023-04-08T05:08:12;99864.04;;;15.99;25.64
55022;BME280;68328;35.990;-86.756;2023-04-08T05:10:36;99862.51;;;15.95;25.75
55022;BME280;68328;35.990;-86.756;2023-04-08T05:13:01;99864.66;;;16.08;25.87
55022;BME280;68328;35.990;-86.756;2023-04-08T05:15:26;99864.48;;;15.44;30.10
55022;BME280;68328;35.990;-86.756;2023-04-08T05:17:52;99859.63;;;15.94;27.50
55022;BME280;68328;35.990;-86.756;2023-04-08T05:20:17;99858.62;;;15.12;26.84
55022;BME280;68328;35.990;-86.756;2023-04-08T05:22:42;99857.70;;;15.81;28.56
55022;BME280;68328;35.990;-86.756;2023-04-08T05:25:08;99864.21;;;15.67;25.91
55022;BME280;68328;35.990;-86.756;2023-04-08T05:27:33;99865.15;;;15.74;25.51
55022;BME280;68328;35.990;-86.756;2023-04-08T05:29:59;99858.22;;;15.71;24.82
55022;BME280;68328;35.990;-86.756;2023-04-08T05:32:23;99861.53;;;15.41;27.55
55022;BME280;68328;35.990;-86.756;2023-04-08T05:34:49;99864.94;;;15.78;28.13
55022;BME280;68328;35.990;-86.756;2023-04-08T05:37:15;99863.17;;;15.58;26.62
55022;BME280;68328;35.990;-86.756;2023-04-08T05:39:45;99859.83;;;15.34;25.06
55022;BME280;68328;35.990;-86.756;2023-04-08T05:42:04;99855.29;;;15.49;25.81
55022;BME280;68328;35.990;-86.756;2023-04-08T05:44:30;99854.39;;;15.78;25.63
55022;BME280;68328;35.990;-86.756;2023-04-08T05:46:56;99860.67;;;15.26;27.49
55022;BME280;68328;35.990;-86.756;2023-04-08T05:49:20;99855.07;;;15.87;28.89
55022;BME280;68328;35.990;-86.756;2023-04-08T05:51:46;99848.60;;;15.49;25.55
55022;BME280;68328;35.990;-86.756;2023-04-08T05:54:11;99840.52;;;15.37;26.38
55022;BME280;68328;35.990;-86.756;2023-04-08T05:56:36;99838.74;;;15.27;26.25
55022;BME280;68328;35.990;-86.756;2023-04-08T05:59:02;99837.36;;;15.60;25.40
55022;BME280;68328;35.990;-86.756;2023-04-08T06:01:29;99833.08;;;15.77;24.99
55022;BME280;68328;35.990;-86.756;2023-04-08T06:03:53;99832.39;;;15.67;27.80
55022;BME280;68328;35.990;-86.756;2023-04-08T06:06:18;99827.40;;;15.76;26.00
55022;BME280;68328;35.990;-86.756;2023-04-08T06:08:45;99824.02;;;15.59;25.74
55022;BME280;68328;35.990;-86.756;2023-04-08T06:11:08;99831.28;;;14.99;26.59
55022;BME280;68328;35.990;-86.756;2023-04-08T06:13:33;99829.26;;;15.08;28.01
55022;BME280;68328;35.990;-86.756;2023-04-08T06:16:09;99829.38;;;15.57;26.68
55022;BME280;68328;35.990;-86.756;2023-04-08T06:18:25;99828.90;;;16.03;26.06
55022;BME280;68328;35.990;-86.756;2023-04-08T06:20:51;99826.26;;;15.85;28.24
55022;BME280;68328;35.990;-86.756;2023-04-08T06:23:15;99821.34;;;15.96;27.75
55022;BME280;68328;35.990;-86.756;2023-04-08T06:25:41;99820.82;;;16.12;26.26
55022;BME280;68328;35.990;-86.756;2023-04-08T06:28:07;99817.13;;;15.68;26.74
55022;BME280;68328;35.990;-86.756;2023-04-08T06:30:31;99815.85;;;15.86;26.72
55022;BME280;68328;35.990;-86.756;2023-04-08T06:32:56;99826.20;;;15.29;26.30
55022;BME280;68328;35.990;-86.756;2023-04-08T06:35:21;99821.70;;;16.09;27.08
55022;BME280;68328;35.990;-86.756;2023-04-08T06:37:48;99818.65;;;15.65;26.49
55022;BME280;68328;35.990;-86.756;2023-04-08T06:40:13;99819.92;;;15.61;26.70
55022;BME280;68328;35.990;-86.756;2023-04-08T06:42:37;99823.22;;;15.19;28.06
55022;BME280;68328;35.990;-86.756;2023-04-08T06:45:03;99816.55;;;15.67;26.95
55022;BME280;68328;35.990;-86.756;2023-04-08T06:47:29;99814.51;;;16.05;28.57
55022;BME280;68328;35.990;-86.756;2023-04-08T06:49:54;99806.99;;;15.45;26.55
55022;BME280;68328;35.990;-86.756;2023-04-08T06:52:18;99802.07;;;15.40;26.44
55022;BME280;68328;35.990;-86.756;2023-04-08T06:54:45;99796.26;;;15.75;27.23
55022;BME280;68328;35.990;-86.756;2023-04-08T06:57:09;99789.92;;;15.27;27.14
55022;BME280;68328;35.990;-86.756;2023-04-08T06:59:34;99787.93;;;15.36;29.03
55022;BME280;68328;35.990;-86.756;2023-04-08T07:02:00;99776.57;;;15.29;27.57
55022;BME280;68328;35.990;-86.756;2023-04-08T07:04:26;99767.83;;;15.09;28.03
55022;BME280;68328;35.990;-86.756;2023-04-08T07:06:51;99756.56;;;15.29;27.83
55022;BME280;68328;35.990;-86.756;2023-04-08T07:09:17;99761.21;;;15.04;28.72
55022;BME280;68328;35.990;-86.756;2023-04-08T07:11:41;99753.57;;;14.73;29.00
55022;BME280;68328;35.990;-86.756;2023-04-08T07:14:06;99739.51;;;15.22;30.99
55022;BME280;68328;35.990;-86.756;2023-04-08T07:16:32;99737.26;;;15.40;28.22
55022;BME280;68328;35.990;-86.756;2023-04-08T07:18:58;99737.71;;;14.97;31.12
55022;BME280;68328;35.990;-86.756;2023-04-08T07:21:22;99734.34;;;15.38;30.27
55022;BME280;68328;35.990;-86.756;2023-04-08T07:23:48;99728.59;;;15.05;29.22
55022;BME280;68328;35.990;-86.756;2023-04-08T07:26:13;99719.41;;;15.04;29.16
55022;BME280;68328;35.990;-86.756;2023-04-08T07:28:38;99719.50;;;14.57;29.53
55022;BME280;68328;35.990;-86.756;2023-04-08T07:31:10;99714.75;;;15.39;29.29
55022;BME280;68328;35.990;-86.756;2023-04-08T07:33:29;99712.03;;;15.12;29.40
55022;BME280;68328;35.990;-86.756;2023-04-08T07:35:54;99717.30;;;15.16;32.13
55022;BME280;68328;35.990;-86.756;2023-04-08T07:38:19;99726.35;;;15.05;32.92
55022;BME280;68328;35.990;-86.756;2023-04-08T07:40:45;99732.36;;;14.99;30.15
55022;BME280;68328;35.990;-86.756;2023-04-08T07:43:10;99742.22;;;15.20;30.03
55022;BME280;68328;35.990;-86.756;2023-04-08T07:45:37;99744.41;;;14.78;30.55
55022;BME280;68328;35.990;-86.756;2023-04-08T07:48:01;99745.90;;;14.51;30.80
55022;BME280;68328;35.990;-86.756;2023-04-08T07:50:26;99747.24;;;14.81;30.54
55022;BME280;68328;35.990;-86.756;2023-04-08T07:52:52;99745.68;;;15.08;31.41
55022;BME280;68328;35.990;-86.756;2023-04-08T07:55:17;99741.41;;;14.86;31.32
55022;BME280;68328;35.990;-86.756;2023-04-08T07:57:42;99734.21;;;14.68;30.98
55022;BME280;68328;35.990;-86.756;2023-04-08T08:00:08;99726.31;;;14.92;30.95
55022;BME280;68328;35.990;-86.756;2023-04-08T08:02:34;99719.21;;;15.15;30.70
55022;BME280;68328;35.990;-86.756;2023-04-08T08:04:59;99711.93;;;14.23;31.27
55022;BME280;68328;35.990;-86.756;2023-04-08T08:07:24;99698.98;;;14.89;31.39
55022;BME280;68328;35.990;-86.756;2023-04-08T08:09:49;99695.26;;;14.81;31.08
55022;BME280;68328;35.990;-86.756;2023-04-08T08:12:15;99690.24;;;14.64;31.11
55022;BME280;68328;35.990;-86.756;2023-04-08T08:14:39;99690.80;;;14.97;31.00
55022;BME280;68328;35.990;-86.756;2023-04-08T08:17:05;99690.30;;;15.25;30.78
55022;BME280;68328;35.990;-86.756;2023-04-08T08:19:31;99698.31;;;15.30;30.30
55022;BME280;68328;35.990;-86.756;2023-04-08T08:21:55;99698.52;;;15.08;31.58
55022;BME280;68328;35.990;-86.756;2023-04-08T08:24:21;99695.75;;;14.98;31.12
55022;BME280;68328;35.990;-86.756;2023-04-08T08:26:46;99696.50;;;15.19;30.87
55022;BME280;68328;35.990;-86.756;2023-04-08T08:29:13;99693.05;;;14.75;31.25
55022;BME280;68328;35.990;-86.756;2023-04-08T08:31:37;99693.44;;;15.26;30.73
55022;BME280;68328;35.990;-86.756;2023-04-08T08:34:02;99696.26;;;15.07;31.64
55022;BME280;68328;35.990;-86.756;2023-04-08T08:36:28;99697.12;;;15.07;32.20
55022;BME280;68328;35.990;-86.756;2023-04-08T08:38:53;99695.93;;;14.76;31.71
55022;BME280;68328;35.990;-86.756;2023-04-08T08:41:18;99691.67;;;14.86;32.83
55022;BME280;68328;35.990;-86.756;2023-04-08T08:43:43;99694.23;;;14.92;31.81
55022;BME280;68328;35.990;-86.756;2023-04-08T08:46:10;99696.19;;;15.09;32.07
55022;BME280;68328;35.990;-86.756;2023-04-08T08:48:34;99697.44;;;14.79;32.01
55022;BME280;68328;35.990;-86.756;2023-04-08T08:50:59;99692.69;;;15.09;32.06
55022;BME280;68328;35.990;-86.756;2023-04-08T08:53:28;99687.51;;;14.92;32.59
55022;BME280;68328;35.990;-86.756;2023-04-08T08:55:50;99683.10;;;14.23;33.05
55022;BME280;68328;35.990;-86.756;2023-04-08T08:58:15;99681.24;;;14.61;34.16
55022;BME280;68328;35.990;-86.756;2023-04-08T09:00:41;99681.15;;;14.60;33.43
55022;BME280;68328;35.990;-86.756;2023-04-08T09:03:16;99688.19;;;14.77;32.07
55022;BME280;68328;35.990;-86.756;2023-04-08T09:05:41;99690.51;;;15.08;31.40
55022;BME280;68328;35.990;-86.756;2023-04-08T09:07:56;99696.71;;;15.28;31.70
55022;BME280;68328;35.990;-86.756;2023-04-08T09:10:27;99700.18;;;15.39;32.51
55022;BME280;68328;35.990;-86.756;2023-04-08T09:12:54;99702.42;;;15.61;31.37
55022;BME280;68328;35.990;-86.756;2023-04-08T09:15:12;99704.94;;;15.16;32.40
55022;BME280;68328;35.990;-86.756;2023-04-08T09:17:40;99704.50;;;14.78;31.46
55022;BME280;68328;35.990;-86.756;2023-04-08T09:20:07;99704.48;;;15.14;31.74
55022;BME280;68328;35.990;-86.756;2023-04-08T09:22:28;99708.38;;;15.51;31.73
55022;BME280;68328;35.990;-86.756;2023-04-08T09:24:54;99712.36;;;15.57;32.78
55022;BME280;68328;35.990;-86.756;2023-04-08T09:29:45;99709.47;;;14.82;32.38
55022;BME280;68328;35.990;-86.756;2023-04-08T09:32:11;99712.63;;;14.95;32.81
55022;BME280;68328;35.990;-86.756;2023-04-08T09:34:35;99707.94;;;14.80;32.34
55022;BME280;68328;35.990;-86.756;2023-04-08T09:37:00;99704.81;;;14.89;32.92
55022;BME280;68328;35.990;-86.756;2023-04-08T09:39:26;99704.29;;;14.69;32.94
55022;BME280;68328;35.990;-86.756;2023-04-08T09:41:51;99705.79;;;14.70;32.88
55022;BME280;68328;35.990;-86.756;2023-04-08T09:44:18;99707.61;;;14.59;33.29
55022;BME280;68328;35.990;-86.756;2023-04-08T09:46:52;99704.93;;;14.81;32.98
55022;BME280;68328;35.990;-86.756;2023-04-08T09:49:11;99703.20;;;15.22;34.28
55022;BME280;68328;35.990;-86.756;2023-04-08T09:51:38;99692.98;;;15.11;32.70
55022;BME280;68328;35.990;-86.756;2023-04-08T09:54:01;99681.65;;;14.98;34.19
55022;BME280;68328;35.990;-86.756;2023-04-08T09:56:23;99675.79;;;15.11;33.37
55022;BME280;68328;35.990;-86.756;2023-04-08T09:58:53;99667.85;;;15.03;32.43
55022;BME280;68328;35.990;-86.756;2023-04-08T10:01:15;99663.62;;;14.98;32.99
55022;BME280;68328;35.990;-86.756;2023-04-08T10:03:46;99651.31;;;14.96;32.96
55022;BME280;68328;35.990;-86.756;2023-04-08T10:06:05;99647.07;;;15.08;32.67
55022;BME280;68328;35.990;-86.756;2023-04-08T10:08:30;99646.58;;;15.15;32.60
55022;BME280;68328;35.990;-86.756;2023-04-08T10:10:55;99650.90;;;15.31;32.54
55022;BME280;68328;35.990;-86.756;2023-04-08T10:13:21;99656.74;;;15.39;32.39
55022;BME280;68328;35.990;-86.756;2023-04-08T10:15:46;99654.16;;;15.40;33.78
55022;BME280;68328;35.990;-86.756;2023-04-08T10:20:43;99644.31;;;15.49;33.85
55022;BME280;68328;35.990;-86.756;2023-04-08T10:23:02;99645.58;;;14.63;33.53
55022;BME280;68328;35.990;-86.756;2023-04-08T10:25:31;99640.51;;;15.04;34.40
55022;BME280;68328;35.990;-86.756;2023-04-08T10:27:52;99638.36;;;15.30;33.20
55022;BME280;68328;35.990;-86.756;2023-04-08T10:32:43;99641.10;;;15.10;34.38
55022;BME280;68328;35.990;-86.756;2023-04-08T10:35:08;99643.03;;;14.71;35.03
55022;BME280;68328;35.990;-86.756;2023-04-08T10:37:34;99652.40;;;14.74;35.37
55022;BME280;68328;35.990;-86.756;2023-04-08T10:40:05;99655.82;;;14.29;35.44
55022;BME280;68328;35.990;-86.756;2023-04-08T10:42:29;99659.56;;;14.53;35.87
55022;BME280;68328;35.990;-86.756;2023-04-08T10:44:49;99659.71;;;14.73;35.99
55022;BME280;68328;35.990;-86.756;2023-04-08T10:47:15;99658.29;;;14.88;36.20
55022;BME280;68328;35.990;-86.756;2023-04-08T10:49:40;99657.40;;;14.47;36.63
55022;BME280;68328;35.990;-86.756;2023-04-08T10:52:07;99665.57;;;14.68;36.54
55022;BME280;68328;35.990;-86.756;2023-04-08T10:54:31;99667.87;;;14.24;38.82
55022;BME280;68328;35.990;-86.756;2023-04-08T10:56:56;99661.21;;;14.05;37.75
55022;BME280;68328;35.990;-86.756;2023-04-08T10:59:28;99654.30;;;14.08;38.22
55022;BME280;68328;35.990;-86.756;2023-04-08T11:01:47;99645.65;;;14.35;37.22
55022;BME280;68328;35.990;-86.756;2023-04-08T11:04:14;99635.48;;;14.21;37.66
55022;BME280;68328;35.990;-86.756;2023-04-08T11:06:40;99628.89;;;14.65;37.02
55022;BME280;68328;35.990;-86.756;2023-04-08T11:09:03;99632.98;;;15.09;37.40
55022;BME280;68328;35.990;-86.756;2023-04-08T11:11:29;99639.87;;;14.50;37.12
55022;BME280;68328;35.990;-86.756;2023-04-08T11:13:56;99644.77;;;14.67;36.88
55022;BME280;68328;35.990;-86.756;2023-04-08T11:16:20;99656.28;;;14.18;37.61
55022;BME280;68328;35.990;-86.756;2023-04-08T11:18:45;99669.73;;;14.57;37.43
55022;BME280;68328;35.990;-86.756;2023-04-08T11:21:10;99676.82;;;14.42;36.33
55022;BME280;68328;35.990;-86.756;2023-04-08T11:23:35;99676.59;;;14.84;36.46
55022;BME280;68328;35.990;-86.756;2023-04-08T11:26:01;99681.85;;;14.71;36.16
55022;BME280;68328;35.990;-86.756;2023-04-08T11:28:26;99682.85;;;14.70;36.62
55022;BME280;68328;35.990;-86.756;2023-04-08T11:30:52;99683.86;;;14.92;36.17
55022;BME280;68328;35.990;-86.756;2023-04-08T11:33:17;99683.76;;;14.87;36.47
55022;BME280;68328;35.990;-86.756;2023-04-08T11:35:42;99682.21;;;15.19;36.61
55022;BME280;68328;35.990;-86.756;2023-04-08T11:38:08;99692.22;;;14.96;38.59
55022;BME280;68328;35.990;-86.756;2023-04-08T11:40:32;99708.26;;;14.62;36.67
55022;BME280;68328;35.990;-86.756;2023-04-08T11:42:58;99716.90;;;14.92;36.78
55022;BME280;68328;35.990;-86.756;2023-04-08T11:45:24;99725.27;;;14.54;36.60
55022;BME280;68328;35.990;-86.756;2023-04-08T11:47:48;99717.82;;;15.10;37.04
55022;BME280;68328;35.990;-86.756;2023-04-08T11:50:22;99716.55;;;15.02;36.56
55022;BME280;68328;35.990;-86.756;2023-04-08T11:52:41;99719.85;;;14.99;36.55
55022;BME280;68328;35.990;-86.756;2023-04-08T11:55:05;99726.78;;;14.94;37.59
55022;BME280;68328;35.990;-86.756;2023-04-08T11:57:29;99731.49;;;14.92;36.61
55022;BME280;68328;35.990;-86.756;2023-04-08T11:59:55;99732.28;;;15.05;36.63
55022;BME280;68328;35.990;-86.756;2023-04-08T12:02:20;99732.02;;;15.15;36.98
55022;BME280;68328;35.990;-86.756;2023-04-08T12:04:46;99734.20;;;15.29;36.89
55022;BME280;68328;35.990;-86.756;2023-04-08T12:07:11;99733.25;;;15.30;36.81
55022;BME280;68328;35.990;-86.756;2023-04-08T12:09:36;99734.79;;;15.04;37.75
55022;BME280;68328;35.990;-86.756;2023-04-08T12:12:01;99738.68;;;14.84;39.55
55022;BME280;68328;35.990;-86.756;2023-04-08T12:14:27;99733.05;;;14.59;38.66
55022;BME280;68328;35.990;-86.756;2023-04-08T12:16:52;99732.99;;;13.71;40.99
55022;BME280;68328;35.990;-86.756;2023-04-08T12:19:18;99729.81;;;14.16;39.40
55022;BME280;68328;35.990;-86.756;2023-04-08T12:21:43;99729.59;;;14.58;39.23
55022;BME280;68328;35.990;-86.756;2023-04-08T12:24:09;99731.17;;;14.15;39.52
55022;BME280;68328;35.990;-86.756;2023-04-08T12:26:34;99735.75;;;14.09;39.53
55022;BME280;68328;35.990;-86.756;2023-04-08T12:28:59;99734.94;;;14.25;40.39
55022;BME280;68328;35.990;-86.756;2023-04-08T12:31:25;99732.54;;;13.64;40.92
55022;BME280;68328;35.990;-86.756;2023-04-08T12:33:50;99731.87;;;13.88;40.13
55022;BME280;68328;35.990;-86.756;2023-04-08T12:36:15;99733.44;;;14.48;39.98